Time;durP1;ratioP1;P1;durP2;ratioP2;P2;SDS_P1;SDS_P2;PMS_P1;PMS_P2;Temp;Humidity;BMP_temperature;BMP_pressure;BME280_temperature;BME280_humidity;BME280_pressure;Samples;Min_cycle;Max_cycle;Signal;HPM_P1;HPM_P2
2024/03/17 05:02:12;;;;;;;2.30;1.20;;;1.50;97.30;;;;;;5265218;23;20876;-64
2024/03/17 05:04:38;;;;;;;1.00;0.90;;;1.50;97.30;;;;;;4991122;28;21005;-63
2024/03/17 05:07:03;;;;;;;1.30;1.20;;;1.50;97.30;;;;;;4970973;28;20607;-64
2024/03/17 05:09:29;;;;;;;1.30;1.20;;;1.40;97.30;;;;;;4980555;28;20473;-63
2024/03/17 05:11:54;;;;;;;1.10;1.00;;;1.40;97.30;;;;;;4982963;28;20630;-63
2024/03/17 05:14:20;;;;;;;1.83;1.73;;;1.30;97.30;;;;;;4959515;28;20475;-63
2024/03/17 05:16:52;;;;;;;1.50;1.40;;;1.30;97.30;;;;;;4977497;28;20207;-63
2024/03/17 05:19:17;;;;;;;3.33;2.03;;;1.30;97.30;;;;;;4959232;28;20341;-63
2024/03/17 05:21:44;;;;;;;1.20;1.10;;;1.30;97.30;;;;;;4962637;28;20449;-63
2024/03/17 05:24:11;;;;;;;1.73;1.57;;;1.40;97.30;;;;;;4957606;28;20186;-63
2024/03/17 05:26:36;;;;;;;1.30;1.20;;;1.40;97.30;;;;;;4969604;28;20922;-63
2024/03/17 05:29:02;;;;;;;1.47;1.37;;;1.40;97.30;;;;;;4962202;28;20476;-63
2024/03/17 05:31:28;;;;;;;1.30;1.20;;;1.30;97.30;;;;;;4971988;28;20230;-63
2024/03/17 05:33:53;;;;;;;1.00;0.90;;;1.30;97.30;;;;;;4983281;28;20193;-63
2024/03/17 05:36:20;;;;;;;2.90;2.73;;;1.30;97.30;;;;;;4959667;28;20234;-63
2024/03/17 05:38:45;;;;;;;1.20;1.10;;;1.30;97.30;;;;;;4957096;28;20644;-63
2024/03/17 05:41:11;;;;;;;3.40;1.23;;;1.20;97.30;;;;;;4954615;28;20987;-63
2024/03/17 05:43:38;;;;;;;1.50;1.40;;;1.20;97.30;;;;;;4964065;28;20206;-63
2024/03/17 05:46:09;;;;;;;1.33;1.10;;;1.30;97.30;;;;;;4967504;28;20276;-63
2024/03/17 05:48:38;;;;;;;1.30;1.20;;;1.30;97.30;;;;;;4960237;28;20865;-63
2024/03/17 05:51:08;;;;;;;1.83;1.73;;;1.40;97.30;;;;;;4976404;28;20445;-63
2024/03/17 05:53:35;;;;;;;3.07;2.70;;;1.40;97.30;;;;;;4980558;28;20425;-63
2024/03/17 05:56:02;;;;;;;1.77;1.67;;;1.40;97.30;;;;;;4977289;28;20443;-63
2024/03/17 05:58:27;;;;;;;3.00;1.40;;;1.50;97.30;;;;;;4956620;28;20441;-63
2024/03/17 06:00:53;;;;;;;1.40;1.30;;;1.60;97.30;;;;;;4970616;28;20454;-63
2024/03/17 06:03:19;;;;;;;1.10;1.00;;;1.60;97.30;;;;;;4973908;28;20179;-63
2024/03/17 06:05:47;;;;;;;1.33;1.23;;;1.70;97.30;;;;;;4973077;28;20677;-63
2024/03/17 06:08:14;;;;;;;1.40;1.30;;;1.70;97.30;;;;;;4960634;28;20216;-63
2024/03/17 06:10:44;;;;;;;3.50;1.83;;;1.70;97.30;;;;;;4969963;28;20466;-63
2024/03/17 06:13:13;;;;;;;1.20;1.10;;;1.70;97.30;;;;;;4956852;28;20433;-63
2024/03/17 06:15:39;;;;;;;1.37;1.27;;;1.80;97.30;;;;;;4959590;28;20960;-63
2024/03/17 06:18:08;;;;;;;1.40;1.30;;;1.80;97.30;;;;;;4973786;28;20992;-63
2024/03/17 06:20:34;;;;;;;2.17;1.33;;;1.80;97.30;;;;;;4977537;28;20937;-63
2024/03/17 06:22:59;;;;;;;1.10;1.00;;;1.90;97.30;;;;;;4978634;28;20445;-63
2024/03/17 06:25:25;;;;;;;1.50;1.40;;;2.00;97.30;;;;;;4966536;28;20188;-63
2024/03/17 06:27:51;;;;;;;1.20;1.10;;;2.10;97.30;;;;;;4965359;28;20194;-66
2024/03/17 06:30:17;;;;;;;4.00;1.77;;;2.20;97.30;;;;;;4979397;28;20186;-63
2024/03/17 06:32:47;;;;;;;1.40;1.30;;;2.20;97.30;;;;;;4976640;28;20434;-63
2024/03/17 06:35:15;;;;;;;1.37;1.27;;;2.30;97.30;;;;;;4974242;28;20434;-63
2024/03/17 06:37:41;;;;;;;1.93;1.83;;;2.50;97.30;;;;;;4952574;28;20564;-63
2024/03/17 06:40:11;;;;;;;2.70;2.50;;;2.60;97.30;;;;;;4972676;28;20848;-63
2024/03/17 06:42:37;;;;;;;1.50;1.40;;;2.70;97.30;;;;;;4956445;28;20524;-66
2024/03/17 06:45:03;;;;;;;1.27;1.17;;;2.80;97.30;;;;;;4966307;28;20950;-63
2024/03/17 06:47:32;;;;;;;2.00;1.67;;;2.90;97.30;;;;;;4976502;23;20553;-85
2024/03/17 06:50:11;;;;;;;1.47;1.37;;;3.10;97.30;;;;;;4969222;28;20430;-85
2024/03/17 06:52:40;;;;;;;1.10;1.00;;;3.30;97.30;;;;;;4972745;28;20487;-85
2024/03/17 06:55:12;;;;;;;1.30;1.20;;;3.50;97.30;;;;;;4971714;28;20490;-85
2024/03/17 06:58:11;;;;;;;1.70;1.43;;;3.80;97.30;;;;;;4960141;28;20908;-85
2024/03/17 07:01:33;;;;;;;1.50;1.40;;;4.00;97.30;;;;;;4955888;28;20473;-85
2024/03/17 07:04:02;;;;;;;1.63;1.57;;;4.10;97.30;;;;;;4975618;28;20460;-84
2024/03/17 07:06:51;;;;;;;2.57;1.27;;;4.40;97.30;;;;;;4954584;28;20438;-85
2024/03/17 07:09:49;;;;;;;2.07;1.93;;;4.60;97.30;;;;;;4936743;28;20849;-85
2024/03/17 07:12:22;;;;;;;1.10;1.00;;;4.80;97.30;;;;;;4946515;28;20426;-84
2024/03/17 07:15:02;;;;;;;1.20;1.10;;;5.00;97.30;;;;;;4954124;28;20493;-84
2024/03/17 07:17:31;;;;;;;1.87;1.53;;;5.10;97.30;;;;;;4956391;28;20990;-85
2024/03/17 07:20:22;;;;;;;1.20;1.10;;;5.20;97.30;;;;;;4954177;28;20505;-84
2024/03/17 07:22:50;;;;;;;1.67;1.57;;;5.20;97.30;;;;;;4945946;28;20418;-84
2024/03/17 07:25:29;;;;;;;1.00;0.90;;;5.20;97.30;;;;;;4971687;28;20406;-84
2024/03/17 07:28:02;;;;;;;2.03;1.20;;;5.30;97.30;;;;;;4963153;28;20453;-85
2024/03/17 07:30:31;;;;;;;3.57;1.67;;;5.40;97.30;;;;;;4953719;28;20457;-84
2024/03/17 07:33:02;;;;;;;1.00;0.90;;;5.50;97.30;;;;;;4954750;28;20532;-85
2024/03/17 07:35:31;;;;;;;2.10;1.40;;;5.50;97.30;;;;;;4955920;28;20418;-84
2024/03/17 07:38:03;;;;;;;1.83;1.20;;;5.60;97.30;;;;;;4951015;28;20509;-84
2024/03/17 07:40:31;;;;;;;1.93;1.83;;;5.80;97.30;;;;;;4973110;28;20493;-84
2024/03/17 07:43:19;;;;;;;1.10;1.00;;;5.90;97.30;;;;;;4957765;28;20428;-82
2024/03/17 07:46:12;;;;;;;1.00;0.90;;;5.90;97.30;;;;;;4943783;28;20426;-82
2024/03/17 07:48:51;;;;;;;1.00;0.90;;;6.00;97.30;;;;;;4944338;28;20476;-84
2024/03/17 07:51:21;;;;;;;1.20;1.10;;;6.10;97.30;;;;;;4951091;28;20979;-84
2024/03/17 07:53:52;;;;;;;36.90;3.13;;;6.10;97.30;;;;;;4954033;28;20943;-84
2024/03/17 07:56:21;;;;;;;4.63;1.47;;;6.20;97.30;;;;;;4971431;28;20863;-84
2024/03/17 07:58:51;;;;;;;1.03;1.00;;;6.30;97.30;;;;;;4955865;28;20448;-82
2024/03/17 08:01:53;;;;;;;1.20;1.10;;;6.40;97.30;;;;;;4974799;28;20425;-82
2024/03/17 08:04:21;;;;;;;1.80;1.63;;;6.50;97.30;;;;;;4946707;28;20445;-82
2024/03/17 08:06:53;;;;;;;1.57;1.47;;;6.50;97.30;;;;;;4953976;28;20449;-83
2024/03/17 08:09:22;;;;;;;1.13;1.03;;;6.50;97.30;;;;;;4954112;28;20434;-84
2024/03/17 08:11:52;;;;;;;1.10;1.00;;;6.50;97.30;;;;;;4956267;28;20430;-84
2024/03/17 08:14:20;;;;;;;1.77;1.67;;;6.50;97.30;;;;;;4955657;28;20425;-82
2024/03/17 08:17:01;;;;;;;2.50;1.40;;;6.60;97.30;;;;;;4956650;28;21025;-82
2024/03/17 08:19:32;;;;;;;1.10;1.00;;;6.70;97.30;;;;;;4954472;28;20429;-82
2024/03/17 08:22:01;;;;;;;6.03;2.10;;;6.90;97.30;;;;;;4954673;28;20413;-84
2024/03/17 08:24:53;;;;;;;1.10;1.00;;;7.00;97.30;;;;;;4966516;28;20802;-82
2024/03/17 08:27:22;;;;;;;3.10;1.20;;;7.10;97.30;;;;;;4954551;28;20460;-83
2024/03/17 08:29:51;;;;;;;1.00;0.90;;;7.20;97.30;;;;;;4954096;28;20426;-82
2024/03/17 08:32:22;;;;;;;1.20;1.10;;;7.30;97.30;;;;;;4955984;28;20564;-82
2024/03/17 08:34:51;;;;;;;1.20;1.10;;;7.40;97.30;;;;;;4960297;28;20437;-82
2024/03/17 08:37:25;;;;;;;4.83;1.67;;;7.50;97.30;;;;;;4973034;28;20462;-82
2024/03/17 08:39:51;;;;;;;1.00;0.90;;;7.60;97.30;;;;;;4959347;28;20420;-82
2024/03/17 08:42:23;;;;;;;0.90;0.80;;;7.60;97.30;;;;;;4958689;28;20804;-82
2024/03/17 08:44:51;;;;;;;1.17;1.07;;;7.70;97.30;;;;;;4976329;28;20189;-83
2024/03/17 08:47:20;;;;;;;1.10;1.00;;;7.80;97.30;;;;;;4963846;28;20477;-83
2024/03/17 08:50:03;;;;;;;1.60;1.47;;;7.90;97.30;;;;;;4960156;28;20834;-82
2024/03/17 08:52:32;;;;;;;1.10;1.00;;;8.00;97.30;;;;;;4975192;28;20417;-82
2024/03/17 08:55:03;;;;;;;1.63;1.53;;;8.00;97.30;;;;;;4959412;28;20480;-83
2024/03/17 08:57:32;;;;;;;1.93;1.83;;;8.10;97.30;;;;;;4956831;28;20458;-83
2024/03/17 09:00:00;;;;;;;6.73;1.43;;;8.10;97.30;;;;;;4958227;28;20472;-83
2024/03/17 09:02:51;;;;;;;1.33;1.00;;;8.10;97.30;;;;;;4974545;28;20817;-83
2024/03/17 09:05:19;;;;;;;6.63;3.17;;;8.20;97.30;;;;;;4975556;28;20421;-83
2024/03/17 09:07:51;;;;;;;1.73;1.10;;;8.20;97.30;;;;;;4950952;28;20462;-82
2024/03/17 09:10:32;;;;;;;1.00;0.90;;;8.40;97.30;;;;;;4957949;28;20426;-83
2024/03/17 09:13:03;;;;;;;0.90;0.80;;;8.80;97.30;;;;;;4951186;28;20531;-83
2024/03/17 09:15:31;;;;;;;1.80;1.77;;;8.90;97.30;;;;;;4967196;28;20927;-83
2024/03/17 09:18:13;;;;;;;1.10;0.93;;;9.00;97.30;;;;;;4956624;28;20987;-83
2024/03/17 09:20:42;;;;;;;1.07;1.00;;;9.10;97.30;;;;;;4957748;28;20429;-83
2024/03/17 09:23:11;;;;;;;0.90;0.80;;;9.10;97.30;;;;;;4957433;28;20433;-83
2024/03/17 09:26:02;;;;;;;1.57;1.47;;;9.10;97.30;;;;;;4956550;28;20939;-82
2024/03/17 09:28:31;;;;;;;3.43;2.17;;;9.10;97.30;;;;;;4945434;28;20437;-83
2024/03/17 09:31:17;;;;;;;;;;;;;;;;;;;;;
2024/03/17 09:33:42;;;;;;;1.20;1.10;;;9.20;95.80;;;;;;4975196;28;20425;-83
2024/03/17 09:36:12;;;;;;;1.13;1.03;;;9.10;96.10;;;;;;4957136;28;20533;-83
2024/03/17 09:38:41;;;;;;;1.30;1.20;;;8.90;96.00;;;;;;4951515;28;20210;-82
2024/03/17 09:41:20;;;;;;;1.50;1.40;;;8.70;96.90;;;;;;4974363;28;20421;-83
2024/03/17 09:43:53;;;;;;;2.80;2.60;;;8.60;97.30;;;;;;4974594;28;20413;-83
2024/03/17 09:46:18;;;;;;;2.40;1.67;;;8.60;97.30;;;;;;4955804;28;20481;-83
2024/03/17 09:48:44;;;;;;;1.33;1.23;;;8.60;97.30;;;;;;4955018;28;20418;-83
2024/03/17 09:51:18;;;;;;;1.53;1.23;;;8.90;96.00;;;;;;4955308;28;20386;-83
2024/03/17 09:53:44;;;;;;;1.20;1.10;;;8.80;95.00;;;;;;4955954;28;20222;-82
2024/03/17 09:56:13;;;;;;;1.47;1.37;;;8.80;94.70;;;;;;4955387;28;20441;-81
2024/03/17 09:58:39;;;;;;;3.00;1.93;;;8.80;95.20;;;;;;4955091;28;20250;-82
2024/03/17 10:01:05;;;;;;;1.73;1.63;;;8.90;95.20;;;;;;4955034;28;20422;-83
2024/03/17 10:03:54;;;;;;;1.20;1.10;;;9.00;96.00;;;;;;4961587;28;20421;-82
2024/03/17 10:06:23;;;;;;;1.40;1.30;;;9.00;96.00;;;;;;4962232;28;20959;-83
2024/03/17 10:08:50;;;;;;;4.70;1.63;;;9.10;96.20;;;;;;4952164;28;20422;-83
2024/03/17 10:11:36;;;;;;;7.33;1.30;;;9.10;95.30;;;;;;4973193;28;20414;-83
2024/03/17 10:14:04;;;;;;;1.60;1.50;;;9.00;94.80;;;;;;4955018;28;20433;-83
2024/03/17 10:16:32;;;;;;;16.53;2.47;;;9.00;94.40;;;;;;4971942;28;20928;-82
2024/03/17 10:19:13;;;;;;;2.00;1.90;;;9.20;94.60;;;;;;4954881;28;20550;-83
2024/03/17 10:21:39;;;;;;;1.63;1.60;;;9.50;94.80;;;;;;4954610;28;20903;-83
2024/03/17 10:24:13;;;;;;;1.97;1.60;;;9.70;93.90;;;;;;4954697;28;20866;-82
2024/03/17 10:26:49;;;;;;;1.60;1.40;;;9.80;93.50;;;;;;4971792;28;20456;-83
2024/03/17 10:29:35;;;;;;;2.47;2.27;;;10.10;92.20;;;;;;4955308;28;20430;-83
2024/03/17 10:32:18;;;;;;;1.20;1.10;;;10.30;91.90;;;;;;4954979;28;20456;-83
2024/03/17 10:34:43;;;;;;;0.80;0.80;;;10.30;92.60;;;;;;4954951;28;20433;-82
2024/03/17 10:37:15;;;;;;;1.10;1.00;;;10.00;91.30;;;;;;4952447;28;20462;-83
2024/03/17 10:39:44;;;;;;;1.37;1.30;;;9.70;91.20;;;;;;4951754;28;20270;-83
2024/03/17 10:42:12;;;;;;;2.20;1.40;;;9.50;92.80;;;;;;4947411;28;20418;-83
2024/03/17 10:44:39;;;;;;;1.63;1.30;;;9.50;93.00;;;;;;4955115;28;20756;-83
2024/03/17 10:47:09;;;;;;;1.27;1.17;;;9.40;92.50;;;;;;4919284;28;1030975;-83
2024/03/17 10:49:37;;;;;;;1.20;1.10;;;9.60;92.40;;;;;;4972722;28;20740;-83
2024/03/17 10:52:15;;;;;;;1.20;1.10;;;9.90;92.00;;;;;;4954898;28;20457;-83
2024/03/17 10:54:45;;;;;;;1.40;1.30;;;10.10;91.60;;;;;;4954946;28;20433;-83
2024/03/17 10:57:35;;;;;;;2.80;1.87;;;10.00;90.80;;;;;;4972072;28;20464;-82
2024/03/17 11:00:08;;;;;;;1.60;1.50;;;9.90;91.40;;;;;;4955094;28;20453;-83
2024/03/17 11:02:36;;;;;;;1.17;1.07;;;9.90;91.10;;;;;;4955490;28;20422;-83
2024/03/17 11:05:19;;;;;;;2.73;1.00;;;9.80;90.90;;;;;;4954558;28;20852;-83
2024/03/17 11:07:47;;;;;;;1.50;1.40;;;9.90;91.40;;;;;;4979232;28;20441;-82
2024/03/17 11:10:24;;;;;;;7.90;2.20;;;9.80;91.10;;;;;;4963683;28;20425;-83
2024/03/17 11:12:52;;;;;;;1.00;0.90;;;9.70;92.10;;;;;;4955997;28;21011;-82
2024/03/17 11:15:24;;;;;;;2.20;2.03;;;9.70;92.10;;;;;;4960247;28;20464;-83
2024/03/17 11:17:51;;;;;;;1.37;1.27;;;10.00;92.30;;;;;;4962679;28;20908;-82
2024/03/17 11:20:30;;;;;;;3.43;2.23;;;10.30;92.00;;;;;;4958015;28;20420;-83
2024/03/17 11:22:58;;;;;;;1.87;1.80;;;10.40;90.60;;;;;;4955993;28;20505;-83
2024/03/17 11:25:26;;;;;;;1.77;1.73;;;10.30;90.30;;;;;;4954639;28;20457;-82
2024/03/17 11:28:09;;;;;;;2.10;1.47;;;10.20;90.50;;;;;;4954262;28;20888;-83
2024/03/17 11:30:43;;;;;;;1.27;1.17;;;10.60;91.20;;;;;;4971866;28;20472;-83
2024/03/17 11:33:36;;;;;;;0.90;0.80;;;11.00;91.20;;;;;;4957654;28;20727;-82
2024/03/17 11:36:21;;;;;;;2.87;1.70;;;11.00;90.00;;;;;;4973384;28;20477;-82
2024/03/17 11:39:06;;;;;;;0.90;0.90;;;10.90;89.20;;;;;;4965116;28;20520;-82
2024/03/17 11:41:34;;;;;;;1.10;1.00;;;10.70;90.80;;;;;;4959642;28;20422;-82
2024/03/17 11:44:18;;;;;;;1.27;1.17;;;10.60;90.40;;;;;;4969610;28;20445;-82
2024/03/17 11:47:04;;;;;;;1.63;1.23;;;10.70;90.60;;;;;;4979208;28;20979;-82
2024/03/17 11:49:31;;;;;;;2.20;1.50;;;10.70;90.70;;;;;;4962711;28;20425;-82
2024/03/17 11:52:08;;;;;;;3.00;1.83;;;10.60;90.30;;;;;;4964843;28;20421;-82
2024/03/17 11:54:35;;;;;;;1.73;1.53;;;10.60;90.90;;;;;;4958868;28;20425;-82
2024/03/17 11:57:01;;;;;;;1.20;1.10;;;10.70;92.10;;;;;;4961896;28;20472;-82
2024/03/17 11:59:27;;;;;;;1.50;1.40;;;10.70;90.20;;;;;;4967547;28;20428;-82
2024/03/17 12:01:53;;;;;;;1.10;1.00;;;10.60;89.50;;;;;;4964784;28;20413;-82
2024/03/17 12:04:21;;;;;;;2.63;1.90;;;10.60;89.20;;;;;;4968546;28;20683;-82
2024/03/17 12:06:48;;;;;;;6.50;2.70;;;10.60;88.80;;;;;;4955964;28;20585;-82
2024/03/17 12:09:31;;;;;;;3.03;1.40;;;11.00;88.20;;;;;;4968345;28;20417;-82
2024/03/17 12:12:01;;;;;;;1.33;1.30;;;11.40;87.30;;;;;;4975191;28;20425;-82
2024/03/17 12:14:28;;;;;;;2.00;1.73;;;11.60;87.60;;;;;;4962982;28;20436;-82
2024/03/17 12:16:55;;;;;;;1.63;1.13;;;11.50;87.40;;;;;;4967161;28;20464;-82
2024/03/17 12:19:21;;;;;;;1.23;1.13;;;11.20;86.90;;;;;;4979868;28;20503;-82
2024/03/17 12:21:52;;;;;;;1.73;1.53;;;11.00;86.90;;;;;;4961005;28;20488;-82
2024/03/17 12:24:19;;;;;;;5.60;1.97;;;10.90;87.40;;;;;;4957744;28;20859;-81
2024/03/17 12:26:46;;;;;;;2.90;2.73;;;11.10;86.70;;;;;;4958245;28;20473;-81
2024/03/17 12:29:22;;;;;;;22.87;15.27;;;11.20;87.50;;;;;;4958426;28;21026;-81
2024/03/17 12:31:50;;;;;;;3.07;2.87;;;11.50;87.60;;;;;;4974571;28;20416;-82
2024/03/17 12:34:15;;;;;;;1.93;1.83;;;11.70;87.60;;;;;;4949706;28;20417;-82
2024/03/17 12:36:42;;;;;;;1.70;1.60;;;12.10;86.70;;;;;;4963897;28;20563;-82
2024/03/17 12:39:20;;;;;;;1.30;1.20;;;12.50;84.80;;;;;;4956973;28;20175;-82
2024/03/17 12:42:04;;;;;;;5.03;3.30;;;12.90;83.30;;;;;;4968007;28;20425;-83
2024/03/17 12:44:31;;;;;;;2.13;1.70;;;13.10;81.30;;;;;;4969942;28;20418;-82
2024/03/17 12:47:00;;;;;;;1.57;1.47;;;13.40;82.10;;;;;;4982444;28;20528;-82
2024/03/17 12:49:26;;;;;;;7.07;2.17;;;13.40;80.50;;;;;;4971831;28;20449;-82
2024/03/17 12:51:52;;;;;;;1.20;1.10;;;13.30;80.40;;;;;;4988609;28;20416;-82
2024/03/17 12:54:24;;;;;;;1.27;1.17;;;13.10;80.50;;;;;;4957410;28;20421;-82
2024/03/17 13:02:27;;;;;;;1.63;1.53;;;13.00;80.20;;;;;;4974547;28;20511;-81
2024/03/17 13:05:16;;;;;;;10.80;1.67;;;12.90;81.40;;;;;;4982809;28;20473;-82
2024/03/17 13:07:41;;;;;;;2.47;1.90;;;12.80;82.90;;;;;;4967327;28;20852;-82
2024/03/17 13:10:08;;;;;;;1.40;1.30;;;12.80;82.70;;;;;;4988316;28;20509;-82
2024/03/17 13:12:34;;;;;;;1.27;1.17;;;12.60;82.00;;;;;;4957115;28;20660;-82
2024/03/17 13:15:00;;;;;;;1.40;1.30;;;12.70;82.60;;;;;;4975307;28;20425;-82
2024/03/17 13:17:25;;;;;;;1.97;1.77;;;13.00;81.70;;;;;;4986597;28;20537;-82
2024/03/17 13:19:51;;;;;;;1.43;1.33;;;13.00;81.00;;;;;;4956511;28;20280;-81
2024/03/17 13:22:16;;;;;;;8.03;2.20;;;13.50;81.50;;;;;;4977390;28;20181;-82
2024/03/17 13:24:42;;;;;;;3.43;1.50;;;13.30;80.40;;;;;;4966781;28;20273;-81
2024/03/17 13:27:08;;;;;;;2.20;2.00;;;12.90;81.20;;;;;;4958460;28;20289;-82
2024/03/17 13:29:35;;;;;;;1.70;1.60;;;13.10;81.60;;;;;;4968362;28;20190;-82
2024/03/17 13:32:02;;;;;;;1.20;1.20;;;13.30;80.80;;;;;;4956901;28;20183;-82
2024/03/17 13:34:28;;;;;;;1.20;1.10;;;13.10;80.50;;;;;;4961126;28;20950;-81
2024/03/17 13:36:54;;;;;;;2.87;2.10;;;13.20;81.50;;;;;;4971341;28;20488;-81
2024/03/17 13:39:21;;;;;;;1.40;1.30;;;12.90;81.70;;;;;;4950009;28;20182;-81
2024/03/17 13:41:47;;;;;;;1.30;1.20;;;12.70;81.50;;;;;;4963806;28;20424;-82
2024/03/17 13:44:13;;;;;;;2.40;1.73;;;12.80;81.60;;;;;;4967207;28;20425;-81
2024/03/17 13:46:38;;;;;;;1.90;1.73;;;13.40;81.60;;;;;;4961401;28;20488;-82
2024/03/17 13:49:10;;;;;;;1.30;1.23;;;14.10;79.80;;;;;;4957190;28;20205;-82
2024/03/17 13:51:36;;;;;;;1.83;1.50;;;14.60;79.00;;;;;;4983174;28;20184;-82
2024/03/17 13:54:02;;;;;;;5.43;1.80;;;15.20;77.90;;;;;;4969787;28;20413;-82
2024/03/17 13:56:28;;;;;;;2.00;1.90;;;15.30;77.90;;;;;;4962581;28;20203;-82
2024/03/17 13:58:53;;;;;;;2.20;1.43;;;15.50;75.70;;;;;;4968891;28;20425;-82
2024/03/17 14:01:19;;;;;;;1.23;1.13;;;15.30;75.70;;;;;;4968586;28;20182;-82
2024/03/17 14:03:45;;;;;;;2.23;2.03;;;15.30;76.00;;;;;;4962182;28;20273;-80
2024/03/17 14:06:11;;;;;;;3.93;3.63;;;14.50;77.60;;;;;;4979326;28;21083;-82
2024/03/17 14:08:36;;;;;;;1.90;1.73;;;13.90;79.40;;;;;;4985305;28;20618;-81
2024/03/17 14:11:04;;;;;;;7.60;2.40;;;13.30;80.90;;;;;;4964567;28;20209;-82
2024/03/17 14:13:29;;;;;;;2.90;2.73;;;13.00;81.40;;;;;;4961265;28;20182;-82
2024/03/17 14:15:58;;;;;;;3.00;2.23;;;12.90;81.60;;;;;;4962099;28;20440;-82
2024/03/17 14:18:24;;;;;;;1.30;1.20;;;13.10;80.90;;;;;;4959142;28;20288;-82
2024/03/17 14:20:50;;;;;;;1.33;1.23;;;13.80;81.40;;;;;;4964349;28;21081;-82
2024/03/17 14:23:16;;;;;;;2.13;1.97;;;14.40;78.50;;;;;;4973458;28;20182;-81
2024/03/17 14:25:42;;;;;;;6.83;1.77;;;14.60;77.40;;;;;;4967823;28;20205;-82
2024/03/17 14:28:08;;;;;;;2.30;1.53;;;14.90;77.30;;;;;;4979119;28;20460;-82
2024/03/17 14:30:34;;;;;;;3.47;1.33;;;14.90;76.60;;;;;;4954561;28;20183;-82
2024/03/17 14:32:59;;;;;;;0.97;0.87;;;14.90;76.20;;;;;;4955558;28;20425;-81
2024/03/17 14:35:27;;;;;;;9.23;4.03;;;14.90;77.00;;;;;;4967477;28;20653;-82
2024/03/17 14:37:53;;;;;;;1.50;1.30;;;15.00;77.50;;;;;;4961008;28;20585;-82
2024/03/17 14:40:28;;;;;;;1.20;1.10;;;15.20;77.70;;;;;;4967698;28;20513;-82
2024/03/17 14:42:55;;;;;;;4.63;2.63;;;15.40;77.40;;;;;;4961289;28;20170;-82
2024/03/17 14:45:23;;;;;;;1.40;1.27;;;15.60;75.70;;;;;;4961742;28;20418;-82
2024/03/17 14:47:49;;;;;;;1.50;1.40;;;15.40;75.10;;;;;;4954939;28;20482;-82
2024/03/17 14:50:16;;;;;;;1.90;1.47;;;15.30;75.00;;;;;;4972617;28;20477;-82
2024/03/17 14:52:42;;;;;;;5.90;2.13;;;15.30;74.80;;;;;;4963934;28;20431;-82
2024/03/17 14:55:11;;;;;;;2.07;1.53;;;15.40;75.30;;;;;;4982340;28;20426;-82
2024/03/17 14:57:38;;;;;;;1.80;1.70;;;15.50;74.70;;;;;;4971512;28;20473;-82
2024/03/17 15:00:13;;;;;;;1.20;1.10;;;15.60;74.90;;;;;;4960789;28;20469;-82
2024/03/17 15:02:40;;;;;;;1.90;1.33;;;15.70;76.10;;;;;;4969818;28;20789;-82
2024/03/17 15:05:06;;;;;;;2.50;1.57;;;15.90;76.50;;;;;;4966830;28;20425;-82
2024/03/17 15:07:31;;;;;;;1.33;1.23;;;16.10;75.50;;;;;;4960847;28;20913;-82
2024/03/17 15:09:57;;;;;;;3.10;2.33;;;16.20;74.90;;;;;;4955247;28;20460;-82
2024/03/17 15:12:24;;;;;;;1.50;1.43;;;16.10;74.30;;;;;;4954365;28;20665;-82
2024/03/17 15:14:49;;;;;;;1.33;1.23;;;16.20;74.20;;;;;;4960149;28;20425;-82
2024/03/17 15:17:15;;;;;;;1.57;1.33;;;16.30;74.40;;;;;;4954249;28;20473;-82
2024/03/17 15:19:43;;;;;;;1.40;1.30;;;16.10;75.00;;;;;;4954930;28;20182;-82
2024/03/17 15:22:08;;;;;;;1.10;1.03;;;16.10;74.30;;;;;;4977437;28;20229;-81
2024/03/17 15:24:34;;;;;;;6.03;1.73;;;15.90;75.60;;;;;;4958834;28;20418;-82
2024/03/17 15:26:59;;;;;;;5.53;1.90;;;15.90;75.20;;;;;;4955807;28;20766;-82
2024/03/17 15:29:25;;;;;;;2.27;2.07;;;15.90;75.50;;;;;;4957560;28;20520;-82
2024/03/17 15:31:50;;;;;;;1.93;1.13;;;16.00;75.30;;;;;;4962642;28;20190;-82
2024/03/17 15:34:16;;;;;;;2.30;2.10;;;15.90;75.50;;;;;;4967228;28;20199;-82
2024/03/17 15:36:42;;;;;;;5.60;1.63;;;16.00;75.40;;;;;;4958456;28;20495;-82
2024/03/17 15:39:11;;;;;;;1.30;1.20;;;16.00;75.60;;;;;;4959154;28;20183;-82
2024/03/17 15:41:37;;;;;;;2.07;1.93;;;16.10;75.60;;;;;;4960977;28;20414;-82
2024/03/17 15:44:02;;;;;;;1.90;1.77;;;16.00;75.60;;;;;;4983723;28;20413;-82
2024/03/17 15:46:29;;;;;;;2.93;2.70;;;15.90;75.60;;;;;;4954741;28;20473;-82
2024/03/17 15:48:55;;;;;;;3.10;1.70;;;16.10;75.80;;;;;;4983585;28;20205;-82
2024/03/17 15:51:20;;;;;;;2.13;1.53;;;16.50;74.40;;;;;;4971752;28;20446;-82
2024/03/17 15:53:48;;;;;;;2.03;1.60;;;16.60;73.40;;;;;;4960520;28;20241;-82
2024/03/17 15:56:13;;;;;;;37.70;1.73;;;16.70;72.50;;;;;;4972870;28;20198;-82
2024/03/17 15:58:39;;;;;;;2.20;1.33;;;16.40;73.40;;;;;;4964580;28;20519;-82
2024/03/17 16:01:06;;;;;;;1.10;1.00;;;16.40;73.50;;;;;;4988823;28;20182;-82
2024/03/17 16:03:34;;;;;;;2.40;1.60;;;16.60;73.20;;;;;;4974679;28;20181;-81
2024/03/17 16:06:07;;;;;;;3.03;1.37;;;16.90;73.70;;;;;;4972211;28;20436;-82
2024/03/17 16:08:42;;;;;;;2.50;1.53;;;16.80;73.80;;;;;;4960768;28;20421;-82
2024/03/17 16:11:10;;;;;;;1.53;1.50;;;17.00;73.70;;;;;;4965829;28;20421;-82
2024/03/17 16:13:38;;;;;;;2.60;1.60;;;16.60;74.20;;;;;;4962460;28;20843;-82
2024/03/17 16:16:09;;;;;;;1.80;1.77;;;15.80;75.10;;;;;;4965806;28;20453;-82
2024/03/17 16:18:35;;;;;;;3.23;2.43;;;14.80;76.80;;;;;;4981810;28;20465;-82
2024/03/17 16:21:10;;;;;;;1.83;1.60;;;13.80;78.00;;;;;;4965978;28;20432;-82
2024/03/17 16:23:49;;;;;;;1.00;0.93;;;13.00;79.90;;;;;;4959920;28;20169;-82
2024/03/17 16:26:15;;;;;;;6.63;2.50;;;12.40;81.90;;;;;;4987483;28;20441;-82
2024/03/17 16:28:41;;;;;;;1.37;1.13;;;12.10;83.00;;;;;;4974293;28;20447;-82
2024/03/17 16:31:07;;;;;;;3.43;1.37;;;11.70;83.80;;;;;;4971394;28;20277;-84
2024/03/17 16:33:36;;;;;;;2.90;2.70;;;11.50;84.50;;;;;;4960654;28;20183;-82
2024/03/17 16:36:04;;;;;;;2.73;2.53;;;11.20;84.70;;;;;;4965443;28;20484;-82
2024/03/17 16:38:31;;;;;;;8.53;2.10;;;11.00;85.40;;;;;;4959025;28;20460;-82
2024/03/17 16:41:01;;;;;;;2.70;1.93;;;10.80;86.00;;;;;;4977919;28;20436;-82
2024/03/17 16:43:46;;;;;;;5.00;1.97;;;10.70;86.20;;;;;;4965779;28;20436;-82
2024/03/17 16:46:44;;;;;;;7.60;2.20;;;10.60;86.50;;;;;;4974926;28;20492;-82
2024/03/17 16:49:10;;;;;;;1.97;1.67;;;10.50;87.00;;;;;;4960639;28;20960;-81
2024/03/17 16:51:36;;;;;;;5.53;1.83;;;10.40;87.80;;;;;;4965648;28;20437;-82
2024/03/17 16:54:02;;;;;;;1.70;1.63;;;10.30;88.40;;;;;;4974844;28;20488;-81
2024/03/17 16:56:29;;;;;;;1.53;1.27;;;10.30;88.70;;;;;;4979896;28;20642;-81
2024/03/17 16:58:54;;;;;;;3.33;2.23;;;10.20;88.70;;;;;;4957603;28;20429;-82
2024/03/17 17:01:20;;;;;;;2.90;2.47;;;10.10;89.10;;;;;;4968843;28;20422;-83
2024/03/17 17:03:46;;;;;;;1.30;1.23;;;10.00;89.50;;;;;;4964091;28;20185;-83
2024/03/17 17:06:12;;;;;;;1.60;1.50;;;9.90;89.40;;;;;;4981346;28;20634;-84
2024/03/17 17:08:38;;;;;;;2.10;1.50;;;9.80;89.80;;;;;;4962321;28;20409;-83
2024/03/17 17:11:03;;;;;;;3.53;1.33;;;9.70;90.00;;;;;;4957421;28;20417;-80
2024/03/17 17:13:29;;;;;;;2.73;2.53;;;9.60;90.60;;;;;;4961936;28;20935;-84
2024/03/17 17:15:55;;;;;;;2.30;1.50;;;9.50;90.80;;;;;;4959208;28;20197;-84
2024/03/17 17:18:54;;;;;;;2.07;1.47;;;9.50;91.10;;;;;;4962830;28;20996;-86
2024/03/17 17:21:21;;;;;;;6.00;1.20;;;9.40;91.40;;;;;;4955005;28;20453;-85
2024/03/17 17:23:47;;;;;;;3.67;3.07;;;9.20;92.10;;;;;;4961451;28;20421;-83
2024/03/17 17:26:22;;;;;;;1.90;1.43;;;9.10;92.60;;;;;;4960930;28;20438;-83
2024/03/17 17:28:57;;;;;;;2.77;1.73;;;9.00;93.10;;;;;;4974114;28;20179;-84
2024/03/17 17:31:23;;;;;;;2.50;2.30;;;8.90;94.00;;;;;;4965634;28;20425;-83
2024/03/17 17:33:50;;;;;;;1.90;1.57;;;8.80;94.20;;;;;;4961110;28;20438;-82
2024/03/17 17:36:15;;;;;;;1.37;1.27;;;8.70;94.50;;;;;;4981324;28;20448;-83
2024/03/17 17:38:41;;;;;;;1.20;1.10;;;8.60;94.40;;;;;;4957518;28;20543;-83
2024/03/17 17:41:16;;;;;;;1.30;1.20;;;8.50;94.50;;;;;;4961868;28;20174;-82
2024/03/17 17:43:43;;;;;;;1.67;1.57;;;8.40;94.90;;;;;;4960845;28;20969;-83
2024/03/17 17:46:11;;;;;;;2.70;2.27;;;8.30;95.20;;;;;;4957367;28;20717;-83
2024/03/17 17:48:37;;;;;;;1.33;1.33;;;8.20;95.40;;;;;;4956740;28;20500;-83
2024/03/17 17:51:08;;;;;;;1.20;1.10;;;8.10;95.70;;;;;;4970806;28;20469;-83
2024/03/17 17:53:34;;;;;;;1.63;1.53;;;8.00;95.90;;;;;;4963443;28;20425;-84
2024/03/17 17:56:06;;;;;;;1.53;1.50;;;7.90;96.10;;;;;;4961522;28;20524;-82
2024/03/17 17:58:33;;;;;;;1.03;0.93;;;7.80;96.40;;;;;;4958647;28;20469;-82
2024/03/17 18:00:59;;;;;;;1.93;1.83;;;7.60;97.00;;;;;;4961756;28;20465;-82
2024/03/17 18:03:25;;;;;;;4.53;2.60;;;7.50;97.10;;;;;;4977823;28;21030;-82
2024/03/17 18:05:52;;;;;;;3.90;2.60;;;7.30;97.30;;;;;;4955496;28;20513;-83
2024/03/17 18:08:18;;;;;;;4.00;2.30;;;7.30;97.30;;;;;;4964606;28;20282;-83
2024/03/17 18:10:43;;;;;;;2.37;2.17;;;7.20;97.30;;;;;;4959128;28;20517;-82
2024/03/17 18:13:09;;;;;;;1.80;1.70;;;7.20;97.30;;;;;;4957945;28;20870;-82
2024/03/17 18:15:35;;;;;;;1.57;1.50;;;7.10;97.30;;;;;;4957838;28;20237;-82